Delmar, NY (12054)

10:40 PM EDT on August 27, 2014 (GMT -0400)
SporeRdDelmar | Change Station
CLOSE
Current Station
Personal Weather Station
Location: Delmar, NY
Elevation: 535 ft
Nearby Weather Stations

Elev 535 ft 42.61 °N, 73.92 °W | Updated 30 minutes ago

Overcast
Overcast
70.9 °F
Feels Like 76 °F
N
5.1
Wind Variable Wind from NW
Gusts 5.1 mph

Today
High -- | Low -- °F
--% Chance of Precip.
Yesterday
High -- | Low -- °F
Precip. -- in
6:15 AM 7:38 PM
Waxing Crescent, 6% visible
Pressure 29.93 in
Visibility 10.0 miles
Clouds Mostly Cloudy 15000 ft
Overcast 20000 ft
Heat Index 76 °F
Dew Point 56 °F
Humidity 58%
Rainfall 0.00 in
Snow Depth Not available.
UV 0 out of 12
Pollen 9.40 out of 12
PM2.5 Moderate
Flu Activity Not available.
METAR KALB 280151Z 26010KT 10SM BKN150 OVC200 22/14 A2993 RMK AO2 SLP134 T02220139

More Conditions Fewer Conditions

Pressure 29.93 in
Visibility 10.0 miles
Clouds Mostly Cloudy 15000 ft
Overcast 20000 ft
Heat Index 76 °F
Dew Point 56 °F
Humidity 58%
Rainfall 0.00 in
Snow Depth Not available.
UV 0 out of 12
Pollen 9.40 out of 12
PM2.5 Moderate
Flu Activity Not available.
METAR KALB 280151Z 26010KT 10SM BKN150 OVC200 22/14 A2993 RMK AO2 SLP134 T02220139

More Conditions Fewer Conditions

10-Day Weather Forecast

Almanac

Astronomy

Aug. 27, 2014 Rise Set
Actual Time 6:15 AM EDT 7:38 PM EDT
Civil Twilight 5:45 AM EDT 8:07 PM EDT
Nautical Twilight 5:10 AM EDT 8:42 PM EDT
Astronomical Twilight 4:32 AM EDT 9:20 PM EDT
Moon 8:12 AM EDT (8/27) 8:24 PM EDT (8/27)
Length of Visible Light 14h 21m
Length of Day
13h 23m
Tomorrow will be 2m 43s shorter.
Waxing Crescent, 6% of the Moon is Illuminated
Today
Waxing Crescent
Sep 2
First Quarter
Sep 8
Full
Sep 15
Last Quarter
Sep 24
New

Today's Extremes

State Highs State Lows

Community

WunderPhotos

Upload Photos

1,747,884 photos uploaded!

Nearby

Air Quality

  Air Quality AQ Index Pollutant
Yesterday Moderate
OZONE
Yesterday Moderate
PM2.5
Current Moderate
PM2.5
Wednesday Good
OZONE
Wednesday Good
PM2.5
Thursday Good
OZONE
Thursday Good
PM2.5

Snow Depth

Station Depth Elevation
No new snow has been reported.

Earthquake Activity

City Distance Mag. Time & Date
No recent earthquake activity has been reported nearby.
Minimum magnitude displayed is 2.5.

Coastal Water Temperatures

Place Temperature
No Stations Reporting

Nearby Weather Stations